Map

Track Data

SID SEASON NUMBER BASIN SUBBASIN NAME ISO_TIME NATURE LAT LON WMO_WIND WMO_PRES WMO_AGENCY TRACK_TYPE DIST2LAND LANDFALL IFLAG USA_AGENCY USA_ATCF_ID USA_LAT USA_LON USA_RECORD USA_STATUS USA_WIND USA_PRES USA_SSHS USA_R34_NE USA_R34_SE USA_R34_SW USA_R34_NW USA_R50_NE USA_R50_SE USA_R50_SW USA_R50_NW USA_R64_NE USA_R64_SE USA_R64_SW USA_R64_NW USA_POCI USA_ROCI USA_RMW USA_EYE TOKYO_LAT TOKYO_LON TOKYO_GRADE TOKYO_WIND TOKYO_PRES TOKYO_R50_DIR TOKYO_R50_LONG TOKYO_R50_SHORT TOKYO_R30_DIR TOKYO_R30_LONG TOKYO_R30_SHORT TOKYO_LAND CMA_LAT CMA_LON CMA_CAT CMA_WIND CMA_PRES HKO_LAT HKO_LON HKO_CAT HKO_WIND HKO_PRES NEWDELHI_LAT NEWDELHI_LON NEWDELHI_GRADE NEWDELHI_WIND NEWDELHI_PRES NEWDELHI_CI NEWDELHI_DP NEWDELHI_POCI REUNION_LAT REUNION_LON REUNION_TYPE REUNION_WIND REUNION_PRES REUNION_TNUM REUNION_CI REUNION_RMW REUNION_R34_NE REUNION_R34_SE REUNION_R34_SW REUNION_R34_NW REUNION_R50_NE REUNION_R50_SE REUNION_R50_SW REUNION_R50_NW REUNION_R64_NE REUNION_R64_SE REUNION_R64_SW REUNION_R64_NW BOM_LAT BOM_LON BOM_TYPE BOM_WIND BOM_PRES BOM_TNUM BOM_CI BOM_RMW BOM_R34_NE BOM_R34_SE BOM_R34_SW BOM_R34_NW BOM_R50_NE BOM_R50_SE BOM_R50_SW BOM_R50_NW BOM_R64_NE BOM_R64_SE BOM_R64_SW BOM_R64_NW BOM_ROCI BOM_POCI BOM_EYE BOM_POS_METHOD BOM_PRES_METHOD NADI_LAT NADI_LON NADI_CAT NADI_WIND NADI_PRES WELLINGTON_LAT WELLINGTON_LON WELLINGTON_WIND WELLINGTON_PRES DS824_LAT DS824_LON DS824_STAGE DS824_WIND DS824_PRES TD9636_LAT TD9636_LON TD9636_STAGE TD9636_WIND TD9636_PRES TD9635_LAT TD9635_LON TD9635_WIND TD9635_PRES TD9635_ROCI NEUMANN_LAT NEUMANN_LON NEUMANN_CLASS NEUMANN_WIND NEUMANN_PRES MLC_LAT MLC_LON MLC_CLASS MLC_WIND MLC_PRES USA_GUST BOM_GUST BOM_GUST_PER REUNION_GUST REUNION_GUST_PER USA_SEAHGT USA_SEARAD_NE USA_SEARAD_SE USA_SEARAD_SW USA_SEARAD_NW STORM_SPEED STORM_DIR
1990203N09318 1990 52 NA NA ARTHUR 1990-07-22 06:00:00 TS 8.80000 -41.9000 25 1010 hurdat_atl main 1154 1095 O_____________ hurdat_atl AL021990 8.80000 -41.9000 TD 25 1010 -1 13 271
1990203N09318 1990 52 NA NA ARTHUR 1990-07-22 09:00:00 TS 8.81028 -42.5502 main 1085 1033 P_____________ AL021990 8.81028 -42.5502 TD 25 1010 -1 13 274
1990203N09318 1990 52 NA NA ARTHUR 1990-07-22 12:00:00 TS 8.90000 -43.2000 25 1010 hurdat_atl main 1033 988 O_____________ hurdat_atl AL021990 8.90000 -43.2000 TD 25 1010 -1 13 283
1990203N09318 1990 52 NA NA ARTHUR 1990-07-22 15:00:00 TS 9.10722 -43.8623 main 978 928 P_____________ AL021990 9.10722 -43.8623 TD 25 1010 -1 14 286
1990203N09318 1990 52 NA NA ARTHUR 1990-07-22 18:00:00 TS 9.30000 -44.6000 25 1010 hurdat_atl main 928 859 O_____________ hurdat_atl AL021990 9.30000 -44.6000 TD 25 1010 -1 16 278
1990203N09318 1990 52 NA NA ARTHUR 1990-07-22 21:00:00 TS 9.33736 -45.4552 main 851 786 P_____________ AL021990 9.33736 -45.4552 TD 25 1010 -1 18 270
1990203N09318 1990 52 NA NA ARTHUR 1990-07-23 00:00:00 TS 9.30000 -46.4000 25 1010 hurdat_atl main 779 713 O_____________ hurdat_atl AL021990 9.30000 -46.4000 TD 25 1010 -1 19 267
1990203N09318 1990 52 NA NA ARTHUR 1990-07-23 03:00:00 TS 9.24991 -47.3926 main 697 641 P_____________ AL021990 9.24991 -47.3926 TD 25 1010 -1 20 267
1990203N09318 1990 52 NA NA ARTHUR 1990-07-23 06:00:00 TS 9.20000 -48.4000 25 1010 hurdat_atl main 635 577 O_____________ hurdat_atl AL021990 9.20000 -48.4000 TD 25 1010 -1 20 268
1990203N09318 1990 52 NA NA ARTHUR 1990-07-23 09:00:00 TS 9.17725 -49.3650 main 570 520 P_____________ AL021990 9.17725 -49.3650 TD 25 1010 -1 19 270
1990203N09318 1990 52 NA NA ARTHUR 1990-07-23 12:00:00 TS 9.20000 -50.3000 25 1010 hurdat_atl main 515 480 O_____________ hurdat_atl AL021990 9.20000 -50.3000 TD 25 1010 -1 18 273
1990203N09318 1990 52 NA NA ARTHUR 1990-07-23 15:00:00 TS 9.27733 -51.2225 main 481 454 P_____________ AL021990 9.27733 -51.2225 TD 25 1009 -1 18 276
1990203N09318 1990 52 NA NA ARTHUR 1990-07-23 18:00:00 TS 9.40000 -52.1000 25 1009 hurdat_atl main 454 428 O_____________ hurdat_atl AL021990 9.40000 -52.1000 TD 25 1009 -1 17 279
1990203N09318 1990 52 NA NA ARTHUR 1990-07-23 21:00:00 TS 9.53471 -52.9151 main 428 423 P_____________ AL021990 9.53471 -52.9151 TD 27 1008 -1 16 281
1990203N09318 1990 52 NA NA ARTHUR 1990-07-24 00:00:00 TS 9.70000 -53.7000 30 1008 hurdat_atl main 429 427 O_____________ hurdat_atl AL021990 9.70000 -53.7000 TD 30 1008 -1 16 283
1990203N09318 1990 52 NA NA ARTHUR 1990-07-24 03:00:00 TS 9.89236 -54.5075 main 448 448 P_____________ AL021990 9.89236 -54.5075 TD 30 1007 -1 16 284
1990203N09318 1990 52 NA NA ARTHUR 1990-07-24 06:00:00 TS 10.1000 -55.3000 30 1007 hurdat_atl main 469 418 O_____________ hurdat_atl AL021990 10.1000 -55.3000 TD 30 1007 -1 16 285
1990203N09318 1990 52 NA NA ARTHUR 1990-07-24 09:00:00 TS 10.3072 -56.0426 main 418 369 P_____________ AL021990 10.3072 -56.0426 TD 32 1006 -1 15 285
1990203N09318 1990 52 NA NA ARTHUR 1990-07-24 12:00:00 TS 10.5000 -56.8000 35 1006 hurdat_atl main 369 329 O_____________ hurdat_atl AL021990 10.5000 -56.8000 TS 35 1006 0 16 282
1990203N09318 1990 52 NA NA ARTHUR 1990-07-24 15:00:00 TS 10.6575 -57.6501 main 334 273 P_____________ AL021990 10.6575 -57.6501 TS 35 1005 0 17 280
1990203N09318 1990 52 NA NA ARTHUR 1990-07-24 18:00:00 TS 10.8000 -58.5000 35 1005 hurdat_atl main 273 198 O_____________ hurdat_atl AL021990 10.8000 -58.5000 TS 35 1005 0 16 280
1990203N09318 1990 52 NA NA ARTHUR 1990-07-24 21:00:00 TS 10.9273 -59.2802 main 187 118 P_____________ AL021990 10.9273 -59.2802 TS 37 1004 0 15 282
1990203N09318 1990 52 NA NA ARTHUR 1990-07-25 00:00:00 TS 11.1000 -60.0000 40 1004 hurdat_atl main 118 80 O_____________ hurdat_atl AL021990 11.1000 -60.0000 TS 40 1004 0 14 288
1990203N09318 1990 52 NA CS ARTHUR 1990-07-25 03:00:00 TS 11.3698 -60.6725 main 84 81 P_____________ AL021990 11.3698 -60.6725 TS 42 1003 0 14 295
1990203N09318 1990 52 NA CS ARTHUR 1990-07-25 06:00:00 TS 11.7000 -61.3000 45 1003 hurdat_atl main 111 111 O_____________ hurdat_atl AL021990 11.7000 -61.3000 TS 45 1003 0 14 299
1990203N09318 1990 52 NA CS ARTHUR 1990-07-25 09:00:00 TS 12.0423 -61.9076 main 147 147 P_____________ AL021990 12.0423 -61.9076 TS 47 1002 0 14 301
1990203N09318 1990 52 NA CS ARTHUR 1990-07-25 12:00:00 TS 12.4000 -62.5000 50 1001 hurdat_atl main 190 190 O_____________ hurdat_atl AL021990 12.4000 -62.5000 TS 50 1001 0 14 302
1990203N09318 1990 52 NA CS ARTHUR 1990-07-25 15:00:00 TS 12.7573 -63.0926 main 235 235 P_____________ AL021990 12.7573 -63.0926 TS 55 998 0 14 301
1990203N09318 1990 52 NA CS ARTHUR 1990-07-25 18:00:00 TS 13.1000 -63.7000 60 995 hurdat_atl main 276 276 O_____________ hurdat_atl AL021990 13.1000 -63.7000 TS 60 995 0 14 299
1990203N09318 1990 52 NA CS ARTHUR 1990-07-25 21:00:00 TS 13.4148 -64.3352 main 313 313 P_____________ AL021990 13.4148 -64.3352 TS 60 996 0 14 295
1990203N09318 1990 52 NA CS ARTHUR 1990-07-26 00:00:00 TS 13.7000 -65.0000 60 997 hurdat_atl main 357 357 O_____________ hurdat_atl AL021990 13.7000 -65.0000 TS 60 997 0 14 292
1990203N09318 1990 52 NA CS ARTHUR 1990-07-26 03:00:00 TS 13.9498 -65.6853 main 370 370 P_____________ AL021990 13.9498 -65.6853 TS 55 998 0 15 290
1990203N09318 1990 52 NA CS ARTHUR 1990-07-26 06:00:00 TS 14.2000 -66.4000 50 1000 hurdat_atl main 399 380 O_____________ hurdat_atl AL021990 14.2000 -66.4000 TS 50 1000 0 15 291
1990203N09318 1990 52 NA CS ARTHUR 1990-07-26 09:00:00 TS 14.4770 -67.1130 main 380 352 P_____________ AL021990 14.4770 -67.1130 TS 47 1001 0 16 292
1990203N09318 1990 52 NA CS ARTHUR 1990-07-26 12:00:00 TS 14.8000 -67.9000 45 1002 hurdat_atl main 354 335 O_____________ hurdat_atl AL021990 14.8000 -67.9000 TS 45 1002 0 18 294
1990203N09318 1990 52 NA CS ARTHUR 1990-07-26 15:00:00 TS 15.1999 -68.8124 main 335 287 P_____________ AL021990 15.1999 -68.8124 TS 42 1004 0 20 294
1990203N09318 1990 52 NA CS ARTHUR 1990-07-26 18:00:00 TS 15.6000 -69.8000 40 1007 hurdat_atl main 281 204 O_____________ hurdat_atl AL021990 15.6000 -69.8000 TS 40 1007 0 20 291
1990203N09318 1990 52 NA CS ARTHUR 1990-07-26 21:00:00 TS 15.9296 -70.7927 main 200 158 P_____________ AL021990 15.9296 -70.7927 TS 37 1008 0 20 287
1990203N09318 1990 52 NA CS ARTHUR 1990-07-27 00:00:00 TS 16.2000 -71.8000 35 1009 hurdat_atl main 162 158 O_____________ hurdat_atl AL021990 16.2000 -71.8000 TS 35 1009 0 20 285
1990203N09318 1990 52 NA CS ARTHUR 1990-07-27 03:00:00 TS 16.4522 -72.8148 main 179 157 P_____________ AL021990 16.4522 -72.8148 TS 32 1009 -1 20 282
1990203N09318 1990 52 NA CS ARTHUR 1990-07-27 06:00:00 TS 16.6000 -73.8000 30 1010 hurdat_atl main 156 156 O_____________ hurdat_atl AL021990 16.6000 -73.8000 TD 30 1010 -1 18 274
1990203N09318 1990 52 NA CS ARTHUR 1990-07-27 09:00:00 TS 16.5956 -74.7204 main 178 169 P_____________ AL021990 16.5956 -74.7204 TD 30 1010 -1 17 267
1990203N09318 1990 52 NA CS ARTHUR 1990-07-27 12:00:00 TS 16.5000 -75.6000 30 1010 hurdat_atl main 169 O_____________ hurdat_atl AL021990 16.5000 -75.6000 TD 30 1010 -1 17 264

About IBTrACS Database

This database is a web-friendly format of International Best Track Archive for Climate Stewardship (IBTrACS), a global best track data archive curated by NOAA dating back to 1842.

Updated: 2021-12-08